createdAt,value
2022-08-01T00:00:16.436Z,41.05
2022-08-01T00:05:17.841Z,40.90
2022-08-01T00:10:19.256Z,41.21
2022-08-01T00:15:20.676Z,41.00
2022-08-01T00:20:22.104Z,41.33
2022-08-01T00:25:34.400Z,41.00
2022-08-01T00:30:36.609Z,41.38
2022-08-01T00:35:38.008Z,41.25
2022-08-01T00:40:39.443Z,41.32
2022-08-01T00:45:40.846Z,41.01
2022-08-01T00:50:42.380Z,41.25
2022-08-01T00:55:43.782Z,40.96
2022-08-01T01:00:53.859Z,41.21
2022-08-01T01:06:19.032Z,40.89
2022-08-01T01:11:29.175Z,40.91
2022-08-01T01:16:30.572Z,40.67
2022-08-01T01:21:49.641Z,40.65
2022-08-01T01:27:11.635Z,40.86
2022-08-01T01:32:34.744Z,40.97
2022-08-01T01:37:36.274Z,41.17
2022-08-01T01:42:37.729Z,41.19
2022-08-01T01:47:39.138Z,41.17
2022-08-01T01:52:40.988Z,41.15
2022-08-01T01:57:42.640Z,40.89
2022-08-01T02:02:44.197Z,41.20
2022-08-01T02:07:45.681Z,41.12
2022-08-01T02:12:50.777Z,41.20
2022-08-01T02:17:52.240Z,41.03
2022-08-01T02:22:56.934Z,40.82
2022-08-01T02:28:05.684Z,40.81
2022-08-01T02:33:21.852Z,40.75
2022-08-01T02:38:24.492Z,40.93
2022-08-01T02:43:26.137Z,40.92
2022-08-01T02:48:27.669Z,41.03
2022-08-01T02:53:38.992Z,41.35
2022-08-01T02:58:45.861Z,41.13
2022-08-01T03:03:47.276Z,41.31
2022-08-01T03:08:49.593Z,41.36
2022-08-01T03:13:51.445Z,41.12
2022-08-01T03:18:54.085Z,41.57
2022-08-01T03:23:57.980Z,41.18
2022-08-01T03:29:11.805Z,41.51
2022-08-01T03:34:13.208Z,41.52
2022-08-01T03:39:15.950Z,41.63
2022-08-01T03:44:19.877Z,41.49
2022-08-01T03:49:23.396Z,41.74
2022-08-01T03:54:25.745Z,41.73
2022-08-01T03:59:27.145Z,41.96
2022-08-01T04:04:29.256Z,42.08
2022-08-01T04:09:32.421Z,41.99
2022-08-01T04:14:33.939Z,41.79
2022-08-01T04:19:35.372Z,42.17
2022-08-01T04:24:36.904Z,42.13
2022-08-01T04:29:38.333Z,42.13
2022-08-01T04:34:40.939Z,42.12
2022-08-01T04:39:50.467Z,42.01
2022-08-01T04:44:52.677Z,42.00
2022-08-01T04:49:54.472Z,42.16
2022-08-01T04:54:55.870Z,42.34
2022-08-01T04:59:57.798Z,42.48
2022-08-01T05:04:59.363Z,42.22
2022-08-01T05:10:02.204Z,42.09
2022-08-01T05:15:11.727Z,42.24
2022-08-01T05:20:14.510Z,42.18
2022-08-01T05:25:20.364Z,42.75
2022-08-01T05:30:26.383Z,42.86
2022-08-01T05:35:48.997Z,42.93
2022-08-01T05:40:49.199Z,42.77
2022-08-01T05:45:50.647Z,43.31
2022-08-01T05:50:58.236Z,43.23
2022-08-01T05:56:00.199Z,43.46
2022-08-01T06:01:01.633Z,43.81
2022-08-01T06:06:03.480Z,44.00
2022-08-01T06:11:04.924Z,44.00
2022-08-01T06:16:06.358Z,44.23
2022-08-01T06:21:07.837Z,44.07
2022-08-01T06:26:09.490Z,44.38
2022-08-01T06:31:13.010Z,44.38
2022-08-01T06:36:14.422Z,44.56
2022-08-01T06:41:15.821Z,44.04
2022-08-01T06:46:17.241Z,44.26
2022-08-01T06:51:20.815Z,44.59
2022-08-01T06:56:23.187Z,44.72
2022-08-01T07:01:24.662Z,44.66
2022-08-01T07:06:26.181Z,44.71
2022-08-01T07:11:27.593Z,45.09
2022-08-01T07:16:29.012Z,45.88
2022-08-01T07:21:39.915Z,45.71
2022-08-01T07:26:53.335Z,45.97
2022-08-01T07:31:56.396Z,46.14
2022-08-01T07:36:57.872Z,46.44
2022-08-01T07:42:07.218Z,46.75
2022-08-01T07:47:09.669Z,46.75
2022-08-01T07:52:11.109Z,46.87
2022-08-01T07:57:12.579Z,47.09
2022-08-01T08:02:14.058Z,47.43
2022-08-01T08:07:15.548Z,46.99
2022-08-01T08:12:16.946Z,47.23
2022-08-01T08:17:19.920Z,48.34
2022-08-01T08:22:21.324Z,47.75
2022-08-01T08:27:22.730Z,48.00
2022-08-01T08:32:24.139Z,48.45
2022-08-01T08:37:25.549Z,48.13
2022-08-01T08:42:32.996Z,48.43
2022-08-01T08:47:34.412Z,48.64
2022-08-01T08:52:36.419Z,48.64
2022-08-01T08:57:40.388Z,49.63
2022-08-01T09:02:45.707Z,48.43
2022-08-01T09:07:47.239Z,49.39
2022-08-01T09:13:11.806Z,49.67
2022-08-01T09:18:41.826Z,49.16
2022-08-01T09:23:54.459Z,48.70
2022-08-01T09:28:56.153Z,49.23
2022-08-01T09:33:59.173Z,48.81
2022-08-01T09:39:12.358Z,48.66
2022-08-01T09:44:13.977Z,48.66
2022-08-01T09:49:15.670Z,49.12
2022-08-01T09:54:17.373Z,49.05
2022-08-01T09:59:19.304Z,48.72
2022-08-01T10:04:21.598Z,48.69
2022-08-01T10:09:35.947Z,48.34
2022-08-01T10:14:42.033Z,48.58
2022-08-01T10:19:50.389Z,48.21
2022-08-01T10:24:55.945Z,48.44
2022-08-01T10:30:08.593Z,48.11
2022-08-01T10:35:45.829Z,47.84
2022-08-01T10:40:42.708Z,48.26
2022-08-01T10:45:44.348Z,47.88
2022-08-01T10:50:49.857Z,48.26
2022-08-01T10:55:57.382Z,48.48
2022-08-01T11:01:16.086Z,48.50
2022-08-01T11:06:22.564Z,48.84
2022-08-01T11:11:24.353Z,48.93
2022-08-01T11:16:26.837Z,48.80
2022-08-01T11:21:58.961Z,49.11
2022-08-01T11:27:17.633Z,49.39
2022-08-01T11:32:25.505Z,49.02
2022-08-01T11:37:30.600Z,49.38
2022-08-01T11:42:32.369Z,49.20
2022-08-01T11:47:48.133Z,48.94
2022-08-01T11:52:51.701Z,49.57
2022-08-01T11:58:06.260Z,49.19
2022-08-01T12:03:08.558Z,49.15
2022-08-01T12:08:09.983Z,49.45
2022-08-01T12:13:11.557Z,49.39
2022-08-01T12:18:12.969Z,49.55
2022-08-01T12:23:15.405Z,49.11
2022-08-01T12:28:18.782Z,49.25
2022-08-01T12:33:21.225Z,49.29
2022-08-01T12:38:27.735Z,49.61
2022-08-01T12:43:29.689Z,49.41
2022-08-01T12:48:31.360Z,49.06
2022-08-01T12:53:40.566Z,48.92
2022-08-01T12:58:43.013Z,49.03
2022-08-01T13:03:58.353Z,48.57
2022-08-01T13:09:06.464Z,48.19
2022-08-01T13:14:07.990Z,47.63
2022-08-01T13:19:09.406Z,47.58
2022-08-01T13:24:13.050Z,47.57
2022-08-01T13:29:15.992Z,47.06
2022-08-01T13:34:17.395Z,46.83
2022-08-01T13:39:37.239Z,46.28
2022-08-01T13:44:38.672Z,46.07
2022-08-01T13:49:40.798Z,46.22
2022-08-01T13:54:42.493Z,46.48
2022-08-01T13:59:43.928Z,45.90
2022-08-01T14:04:45.329Z,45.89
2022-08-01T14:10:04.884Z,46.32
2022-08-01T14:15:08.563Z,45.86
2022-08-01T14:20:11.289Z,45.94
2022-08-01T14:25:12.689Z,45.84
2022-08-01T14:30:25.594Z,45.82
2022-08-01T14:35:27.141Z,46.01
2022-08-01T14:40:28.616Z,46.03
2022-08-01T14:45:30.089Z,45.71
2022-08-01T14:50:31.725Z,46.03
2022-08-01T14:55:33.138Z,46.06
2022-08-01T15:00:35.014Z,45.57
2022-08-01T15:05:37.178Z,45.89
2022-08-01T15:10:38.778Z,45.76
2022-08-01T15:15:40.173Z,45.91
2022-08-01T15:20:41.628Z,45.35
2022-08-01T15:25:43.029Z,45.59
2022-08-01T15:30:44.433Z,45.23
2022-08-01T15:35:45.898Z,45.54
2022-08-01T15:40:47.305Z,45.61
2022-08-01T15:45:49.192Z,45.10
2022-08-01T15:50:50.933Z,45.19
2022-08-01T15:55:52.962Z,45.43
2022-08-01T16:00:54.417Z,45.13
2022-08-01T16:05:55.813Z,45.04
2022-08-01T16:10:57.234Z,45.13
2022-08-01T16:15:59.517Z,45.12
2022-08-01T16:21:01.016Z,45.16
2022-08-01T16:26:02.540Z,45.21
2022-08-01T16:31:14.953Z,44.55
2022-08-01T16:36:25.477Z,44.62
2022-08-01T16:41:27.235Z,45.13
2022-08-01T16:46:28.953Z,44.53
2022-08-01T16:51:32.536Z,44.55
2022-08-01T16:56:34.428Z,44.66
2022-08-01T17:01:59.739Z,44.69
2022-08-01T17:06:57.794Z,44.13
2022-08-01T17:11:59.213Z,44.08
2022-08-01T17:17:00.622Z,44.62
2022-08-01T17:22:02.176Z,44.02
2022-08-01T17:27:04.259Z,44.31
2022-08-01T17:32:07.118Z,44.47
2022-08-01T17:37:09.037Z,43.86
2022-08-01T17:42:10.999Z,44.03
2022-08-01T17:47:14.649Z,43.99
2022-08-01T17:52:26.057Z,43.86
2022-08-01T17:57:30.924Z,43.81
2022-08-01T18:02:32.342Z,43.58
2022-08-01T18:08:01.432Z,43.97
2022-08-01T18:12:55.278Z,43.81
2022-08-01T18:17:57.837Z,43.83
2022-08-01T18:22:59.241Z,43.97
2022-08-01T18:28:22.539Z,43.50
2022-08-01T18:33:22.437Z,44.00
2022-08-01T18:38:24.273Z,43.97
2022-08-01T18:43:25.809Z,43.53
2022-08-01T18:48:27.229Z,44.04
2022-08-01T18:53:28.636Z,44.02
2022-08-01T18:58:30.065Z,43.49
2022-08-01T19:03:32.290Z,43.92
2022-08-01T19:08:33.695Z,43.57
2022-08-01T19:13:35.389Z,43.73
2022-08-01T19:18:38.050Z,43.53
2022-08-01T19:23:58.373Z,43.69
2022-08-01T19:29:02.748Z,43.44
2022-08-01T19:34:04.161Z,43.73
2022-08-01T19:39:06.062Z,43.38
2022-08-01T19:44:07.790Z,43.37
2022-08-01T19:49:12.484Z,43.95
2022-08-01T19:54:13.989Z,43.76
2022-08-01T19:59:16.821Z,43.72
2022-08-01T20:04:18.305Z,43.63
2022-08-01T20:09:19.925Z,43.53
2022-08-01T20:14:25.147Z,43.93
2022-08-01T20:19:26.639Z,43.70
2022-08-01T20:24:28.813Z,43.67
2022-08-01T20:29:32.321Z,43.66
2022-08-01T20:34:37.873Z,44.02
2022-08-01T20:39:43.008Z,43.99
2022-08-01T20:44:45.698Z,43.58
2022-08-01T20:49:47.098Z,44.12
2022-08-01T20:54:48.506Z,43.70
2022-08-01T21:00:01.864Z,44.31
2022-08-01T21:05:07.293Z,44.31
2022-08-01T21:10:09.292Z,44.22
2022-08-01T21:15:31.242Z,44.42
2022-08-01T21:20:33.524Z,44.31
2022-08-01T21:25:35.128Z,44.42
2022-08-01T21:30:36.593Z,44.05
2022-08-01T21:35:38.042Z,44.45
2022-08-01T21:40:39.468Z,44.27
2022-08-01T21:45:57.414Z,44.04
2022-08-01T21:51:02.628Z,44.51
2022-08-01T21:56:13.505Z,44.37
2022-08-01T22:01:21.509Z,44.53
2022-08-01T22:06:22.984Z,44.58
2022-08-01T22:11:30.805Z,44.50
2022-08-01T22:16:32.808Z,44.26
2022-08-01T22:21:34.221Z,44.34
2022-08-01T22:26:36.822Z,44.08
2022-08-01T22:31:38.299Z,44.31
2022-08-01T22:36:39.710Z,44.43
2022-08-01T22:42:01.939Z,44.79
2022-08-01T22:47:44.088Z,44.41
2022-08-01T22:53:11.470Z,44.73
2022-08-01T22:58:12.916Z,44.40
2022-08-01T23:03:28.553Z,44.35
2022-08-01T23:08:32.988Z,44.60
2022-08-01T23:13:34.413Z,44.88
2022-08-01T23:18:35.837Z,44.86
2022-08-01T23:23:46.030Z,44.79
2022-08-01T23:28:47.429Z,44.41
2022-08-01T23:33:48.889Z,44.87
2022-08-01T23:38:50.293Z,44.87
2022-08-01T23:43:52.313Z,44.53
2022-08-01T23:48:54.049Z,44.56
2022-08-01T23:53:55.525Z,44.26
2022-08-01T23:58:56.926Z,44.64
